Time;durP1;ratioP1;P1;durP2;ratioP2;P2;SDS_P1;SDS_P2;PMS_P1;PMS_P2;Temp;Humidity;BMP_temperature;BMP_pressure;BME280_temperature;BME280_humidity;BME280_pressure;Samples;Min_cycle;Max_cycle;Signal;HPM_P1;HPM_P2
2022/09/18 13:04:16;;;;;;;;;;;15.10;1.00;;;;;;5080035;28;19928;-89
2022/09/18 13:06:48;;;;;;;;;;;14.80;1.00;;;;;;5090809;28;19959;-90
2022/09/18 13:09:19;;;;;;;;;;;14.70;1.00;;;;;;5073734;28;19986;-89
2022/09/18 13:11:51;;;;;;;;;;;14.90;1.00;;;;;;5071119;28;19925;-91
2022/09/18 13:14:22;;;;;;;;;;;15.00;1.00;;;;;;5070226;28;19947;-90
2022/09/18 13:16:51;;;;;;;;;;;15.20;1.00;;;;;;5080673;28;19989;-88
2022/09/18 13:19:23;;;;;;;;;;;15.30;1.00;;;;;;5073811;28;19925;-90
2022/09/18 13:21:55;;;;;;;;;;;15.20;1.00;;;;;;5080568;28;19932;-92
2022/09/18 13:24:25;;;;;;;;;;;15.20;1.00;;;;;;5067097;28;19936;-91
2022/09/18 13:26:55;;;;;;;;;;;15.00;1.00;;;;;;5091539;28;19933;-91
2022/09/18 13:29:41;;;;;;;;;;;15.00;1.00;;;;;;5093154;28;19951;-92
2022/09/18 13:32:15;;;;;;;;;;;15.00;1.00;;;;;;5079549;28;19967;-94
2022/09/18 13:34:52;;;;;;;;;;;15.20;1.00;;;;;;5071694;28;19936;-88
2022/09/18 13:37:21;;;;;;;;;;;15.30;1.00;;;;;;5068234;28;20281;-90
2022/09/18 13:39:50;;;;;;;;;;;15.40;1.00;;;;;;5082492;28;19925;-90
2022/09/18 13:42:56;;;;;;;;;;;15.50;1.00;;;;;;5068131;28;19909;-91
2022/09/18 13:45:41;;;;;;;;;;;15.50;1.00;;;;;;5061230;28;19909;-91
2022/09/18 13:48:17;;;;;;;;;;;15.30;1.00;;;;;;5068055;28;20020;-90
2022/09/18 13:51:09;;;;;;;;;;;15.10;1.00;;;;;;5076678;28;20011;-90
2022/09/18 13:53:43;;;;;;;;;;;14.90;1.00;;;;;;5056786;28;19979;-92
2022/09/18 13:56:15;;;;;;;;;;;14.70;1.00;;;;;;5055014;28;19999;-89
2022/09/18 13:58:53;;;;;;;;;;;14.50;1.00;;;;;;5066890;28;19975;-86
2022/09/18 14:01:35;;;;;;;;;;;14.40;1.00;;;;;;5066249;28;19924;-89
2022/09/18 14:04:25;;;;;;;;;;;14.60;1.00;;;;;;5078560;28;19971;-91
2022/09/18 14:06:55;;;;;;;;;;;14.80;1.00;;;;;;5092135;28;20027;-90
2022/09/18 14:09:37;;;;;;;;;;;15.10;1.00;;;;;;5078972;28;19928;-90
2022/09/18 14:12:13;;;;;;;;;;;15.30;1.00;;;;;;5043812;28;19925;-90
2022/09/18 14:14:45;;;;;;;;;;;15.40;1.00;;;;;;5054360;28;19909;-89
2022/09/18 14:17:16;;;;;;;;;;;15.40;1.00;;;;;;5055921;28;19988;-90
2022/09/18 14:22:33;;;;;;;;;;;15.10;1.00;;;;;;5040218;28;19927;-88
2022/09/18 14:25:06;;;;;;;;;;;15.00;1.00;;;;;;5058096;28;19926;-88
2022/09/18 14:27:58;;;;;;;;;;;14.90;1.00;;;;;;5059179;28;19984;-91
2022/09/18 14:30:35;;;;;;;;;;;14.80;1.00;;;;;;5069907;28;19951;-88
2022/09/18 14:33:03;;;;;;;;;;;14.70;1.00;;;;;;5067058;28;19925;-85
2022/09/18 14:35:40;;;;;;;;;;;14.70;1.00;;;;;;5063805;28;19965;-92
2022/09/18 14:38:18;;;;;;;;;;;14.60;1.00;;;;;;5050646;28;19929;-85
2022/09/18 14:40:48;;;;;;;;;;;14.60;1.00;;;;;;5049643;28;20347;-85
2022/09/18 14:43:16;;;;;;;;;;;14.70;1.00;;;;;;5043710;28;19925;-86
2022/09/18 14:45:48;;;;;;;;;;;14.70;1.00;;;;;;5026937;28;19977;-85
2022/09/18 14:48:21;;;;;;;;;;;14.70;1.00;;;;;;5034835;28;20467;-90
2022/09/18 14:50:58;;;;;;;;;;;14.70;1.00;;;;;;5034585;28;20050;-86
2022/09/18 14:53:26;;;;;;;;;;;14.70;1.00;;;;;;5029399;28;19925;-89
2022/09/18 14:55:55;;;;;;;;;;;14.70;1.00;;;;;;5042443;28;20365;-84
2022/09/18 14:58:24;;;;;;;;;;;14.60;1.00;;;;;;5050178;28;20435;-85
2022/09/18 15:00:54;;;;;;;;;;;14.60;1.00;;;;;;5054905;28;19932;-84
2022/09/18 15:03:22;;;;;;;;;;;14.50;1.00;;;;;;5051634;28;19931;-84
2022/09/18 15:05:53;;;;;;;;;;;14.40;1.00;;;;;;5055084;28;19979;-88
2022/09/18 15:08:21;;;;;;;;;;;14.40;1.00;;;;;;5047376;28;19925;-87
2022/09/18 15:10:49;;;;;;;;;;;14.40;1.00;;;;;;5043921;28;20345;-89
2022/09/18 15:13:16;;;;;;;;;;;14.30;1.00;;;;;;5051626;28;19925;-84
2022/09/18 15:15:44;;;;;;;;;;;14.30;1.00;;;;;;5054144;28;19924;-83
2022/09/18 15:18:22;;;;;;;;;;;14.20;1.00;;;;;;5054228;28;19929;-83
2022/09/18 15:20:50;;;;;;;;;;;14.20;1.00;;;;;;5041087;28;19932;-83
2022/09/18 15:23:17;;;;;;;;;;;14.20;1.00;;;;;;5053176;28;19924;-83
2022/09/18 15:25:48;;;;;;;;;;;14.10;1.00;;;;;;5051240;28;20533;-83
2022/09/18 15:28:17;;;;;;;;;;;14.10;1.00;;;;;;5052731;28;19925;-81
2022/09/18 15:30:44;;;;;;;;;;;14.10;1.00;;;;;;5052418;28;19929;-85
2022/09/18 15:33:15;;;;;;;;;;;14.00;1.00;;;;;;5051957;28;19924;-87
2022/09/18 15:35:43;;;;;;;;;;;14.00;1.00;;;;;;5053484;28;19931;-85
2022/09/18 15:38:16;;;;;;;;;;;13.90;1.00;;;;;;5041273;28;19932;-85
2022/09/18 15:40:43;;;;;;;;;;;13.90;1.00;;;;;;5048801;28;19990;-85
2022/09/18 15:43:39;;;;;;;;;;;13.80;1.00;;;;;;5037225;28;20310;-85
2022/09/18 15:46:07;;;;;;;;;;;13.80;1.00;;;;;;5031415;28;19931;-85
2022/09/18 15:48:35;;;;;;;;;;;13.80;1.00;;;;;;5053809;28;19925;-86
2022/09/18 15:51:09;;;;;;;;;;;13.70;1.00;;;;;;5053702;28;19929;-85
2022/09/18 15:53:37;;;;;;;;;;;13.60;1.00;;;;;;5054771;28;19929;-84
2022/09/18 15:56:05;;;;;;;;;;;13.60;1.00;;;;;;5053878;28;19982;-84
2022/09/18 15:58:41;;;;;;;;;;;13.50;1.00;;;;;;5053730;28;19929;-86
2022/09/18 16:01:19;;;;;;;;;;;13.40;1.00;;;;;;5052344;28;19924;-84
2022/09/18 16:03:46;;;;;;;;;;;13.30;1.00;;;;;;5033918;28;19972;-85
2022/09/18 16:06:22;;;;;;;;;;;13.20;1.00;;;;;;5033389;28;20456;-84
2022/09/18 16:08:50;;;;;;;;;;;13.10;1.00;;;;;;5033135;28;19925;-85
2022/09/18 16:11:33;;;;;;;;;;;13.00;1.00;;;;;;5033055;28;19925;-82
2022/09/18 16:14:00;;;;;;;;;;;12.90;1.00;;;;;;5033029;28;20439;-84
2022/09/18 16:16:27;;;;;;;;;;;12.80;1.00;;;;;;5033387;28;19929;-84
2022/09/18 16:18:55;;;;;;;;;;;12.70;1.00;;;;;;5033251;28;20285;-85
2022/09/18 16:21:25;;;;;;;;;;;12.70;1.00;;;;;;5032833;28;19929;-82
2022/09/18 16:23:53;;;;;;;;;;;12.70;1.00;;;;;;5020506;28;19979;-82
2022/09/18 16:26:23;;;;;;;;;;;12.60;1.00;;;;;;5032797;28;20373;-86
2022/09/18 16:28:51;;;;;;;;;;;12.60;1.00;;;;;;5032799;28;19925;-83
2022/09/18 16:31:19;;;;;;;;;;;12.50;1.00;;;;;;5032723;28;19925;-87
2022/09/18 16:33:48;;;;;;;;;;;12.40;1.00;;;;;;5033099;28;19964;-86
2022/09/18 16:36:17;;;;;;;;;;;12.30;1.00;;;;;;5032966;28;19925;-85
2022/09/18 16:38:45;;;;;;;;;;;12.30;1.00;;;;;;5032734;28;19925;-84
2022/09/18 16:41:12;;;;;;;;;;;12.20;1.00;;;;;;5032431;28;20398;-83
2022/09/18 16:43:39;;;;;;;;;;;12.10;1.00;;;;;;5032427;28;19937;-83
2022/09/18 16:46:06;;;;;;;;;;;12.10;1.00;;;;;;5043769;28;19924;-84
2022/09/18 16:48:34;;;;;;;;;;;12.10;1.00;;;;;;5046672;28;20536;-83
2022/09/18 16:51:01;;;;;;;;;;;12.10;1.00;;;;;;5044598;28;19979;-83
2022/09/18 16:53:27;;;;;;;;;;;12.10;1.00;;;;;;5048468;28;19929;-83
2022/09/18 16:55:57;;;;;;;;;;;12.10;1.00;;;;;;5032687;28;20279;-82
2022/09/18 16:58:25;;;;;;;;;;;12.00;1.00;;;;;;5049023;28;20293;-83
2022/09/18 17:00:52;;;;;;;;;;;12.00;1.00;;;;;;5025172;28;19976;-83
2022/09/18 17:03:19;;;;;;;;;;;11.90;1.00;;;;;;5032328;28;19925;-84
2022/09/18 17:05:46;;;;;;;;;;;11.80;1.00;;;;;;5032383;28;19983;-82
2022/09/18 17:08:12;;;;;;;;;;;11.70;1.00;;;;;;5032165;28;19929;-85
2022/09/18 17:10:40;;;;;;;;;;;11.70;1.00;;;;;;5032727;28;19979;-84
2022/09/18 17:13:08;;;;;;;;;;;11.60;1.00;;;;;;5018916;28;19925;-88
2022/09/18 17:15:35;;;;;;;38.22;20.95;;;11.40;1.00;;;;;;5032439;28;20053;-84
2022/09/18 17:18:02;;;;;;;35.42;20.13;;;11.40;1.00;;;;;;5031640;28;20194;-84
2022/09/18 17:20:31;;;;;;;36.00;20.25;;;11.20;1.00;;;;;;5032094;28;20189;-83
2022/09/18 17:22:59;;;;;;;35.40;20.02;;;11.10;1.00;;;;;;5031958;28;20217;-83
2022/09/18 17:25:26;;;;;;;35.72;20.20;;;11.00;1.00;;;;;;5032147;28;20213;-86
2022/09/18 17:27:53;;;;;;;36.70;20.38;;;10.90;1.00;;;;;;5032042;28;20279;-89
2022/09/18 17:30:22;;;;;;;36.57;20.43;;;10.80;1.00;;;;;;5032108;28;20263;-83
2022/09/18 17:32:49;;;;;;;35.60;20.23;;;10.70;1.00;;;;;;5031639;28;20606;-87
2022/09/18 17:38:53;;;;;;;32.75;19.15;;;10.50;1.00;;;;;;5032945;28;20228;-84
2022/09/18 17:41:28;;;;;;;36.85;20.55;;;10.40;1.00;;;;;;5043961;28;20196;-86
2022/09/18 17:44:20;;;;;;;35.93;20.20;;;10.30;1.00;;;;;;5049425;28;20196;-86
2022/09/18 17:46:51;;;;;;;38.23;20.80;;;10.20;1.00;;;;;;5030722;28;20227;-84
2022/09/18 17:49:19;;;;;;;41.43;21.63;;;10.10;1.00;;;;;;5026845;28;20220;-83
2022/09/18 17:51:47;;;;;;;41.67;21.77;;;9.90;1.00;;;;;;5045208;28;20203;-83
2022/09/18 17:54:15;;;;;;;40.40;21.30;;;9.80;1.00;;;;;;5045474;28;20225;-86
2022/09/18 17:56:42;;;;;;;39.10;21.10;;;9.70;1.00;;;;;;5023965;28;20666;-88
2022/09/18 17:59:12;;;;;;;36.87;20.43;;;9.60;1.00;;;;;;5027027;28;20193;-87
2022/09/18 18:01:45;;;;;;;35.20;19.80;;;9.50;1.00;;;;;;5021283;28;20204;-87
2022/09/18 18:04:55;;;;;;;34.30;19.60;;;9.50;1.00;;;;;;5054061;28;20197;-90
2022/09/18 18:10:08;;;;;;;33.27;19.30;;;9.40;1.00;;;;;;5047541;28;20201;-90
2022/09/18 18:12:36;;;;;;;33.93;19.53;;;9.30;1.00;;;;;;5032167;28;20196;-89
2022/09/18 18:15:03;;;;;;;32.47;19.00;;;9.30;1.00;;;;;;5025829;28;20253;-90
2022/09/18 18:17:32;;;;;;;32.03;18.87;;;9.20;1.00;;;;;;5027765;28;20189;-91
2022/09/18 18:20:01;;;;;;;32.87;19.13;;;9.20;1.00;;;;;;5026196;28;20200;-92
2022/09/18 18:22:30;;;;;;;32.60;19.03;;;9.20;1.00;;;;;;5035820;28;20304;-93
2022/09/18 18:24:58;;;;;;;32.90;19.13;;;9.20;1.00;;;;;;5034885;28;20197;-94
2022/09/18 18:27:25;;;;;;;34.27;19.53;;;9.20;1.00;;;;;;5050669;28;20208;-89
2022/09/18 18:30:07;;;;;;;35.27;19.87;;;9.20;1.00;;;;;;5064621;28;20188;-91
2022/09/18 18:32:41;;;;;;;35.57;20.10;;;9.20;1.00;;;;;;5079657;28;20201;-91
2022/09/18 18:35:20;;;;;;;36.23;20.23;;;9.20;1.00;;;;;;5070807;28;20254;-92
2022/09/18 18:37:47;;;;;;;34.00;19.40;;;9.20;1.00;;;;;;5029758;28;20193;-88
2022/09/18 18:40:15;;;;;;;34.60;19.77;;;9.10;1.00;;;;;;5033423;28;20551;-88
2022/09/18 18:42:42;;;;;;;33.57;19.40;;;9.20;1.00;;;;;;5037189;28;20245;-87
2022/09/18 18:45:09;;;;;;;32.00;18.93;;;9.10;1.00;;;;;;5038072;28;20121;-88
2022/09/18 18:47:37;;;;;;;33.43;19.40;;;9.10;1.00;;;;;;5033726;28;20193;-87
2022/09/18 18:50:05;;;;;;;34.07;19.60;;;9.10;1.00;;;;;;5029384;28;20194;-87
2022/09/18 18:52:34;;;;;;;33.17;19.30;;;9.10;1.00;;;;;;5034246;28;20192;-88
2022/09/18 18:55:02;;;;;;;32.97;19.03;;;9.10;1.00;;;;;;5034083;28;20296;-87
2022/09/18 18:57:28;;;;;;;32.77;19.30;;;9.10;1.00;;;;;;5033896;28;20193;-88
2022/09/18 18:59:57;;;;;;;31.27;18.57;;;9.10;1.00;;;;;;5027982;28;20197;-87
2022/09/18 19:02:24;;;;;;;30.87;18.47;;;9.10;1.00;;;;;;5022239;28;20229;-88
2022/09/18 19:04:51;;;;;;;30.87;18.60;;;9.00;1.00;;;;;;5025516;28;20202;-87
2022/09/18 19:07:19;;;;;;;30.17;18.27;;;9.00;1.00;;;;;;5029859;28;20662;-87
2022/09/18 19:09:48;;;;;;;31.07;18.70;;;9.00;1.00;;;;;;5029071;28;20201;-88
2022/09/18 19:12:16;;;;;;;29.30;18.03;;;9.10;1.00;;;;;;5032134;28;20933;-88
2022/09/18 19:14:43;;;;;;;28.47;17.80;;;9.10;1.00;;;;;;5031950;28;20224;-87
2022/09/18 19:17:10;;;;;;;28.60;17.83;;;9.10;1.00;;;;;;5033036;28;20267;-87
2022/09/18 19:19:39;;;;;;;29.13;17.93;;;9.20;1.00;;;;;;5024885;28;20669;-87
2022/09/18 19:22:08;;;;;;;28.20;17.60;;;9.20;1.00;;;;;;5031688;28;20193;-87
2022/09/18 19:24:35;;;;;;;28.80;17.83;;;9.20;1.00;;;;;;5032285;28;20208;-87
2022/09/18 19:27:03;;;;;;;30.50;18.40;;;9.20;1.00;;;;;;5032662;28;20670;-88
2022/09/18 19:29:31;;;;;;;30.80;18.57;;;9.30;1.00;;;;;;5032482;28;20222;-88
2022/09/18 19:31:59;;;;;;;30.73;18.37;;;9.30;1.00;;;;;;5034262;28;20649;-87
2022/09/18 19:34:26;;;;;;;32.30;18.97;;;9.30;1.00;;;;;;5027924;28;20227;-88
2022/09/18 19:36:53;;;;;;;31.83;18.83;;;9.20;1.00;;;;;;5025956;28;20595;-88
2022/09/18 19:39:23;;;;;;;33.03;19.20;;;9.20;1.00;;;;;;5025760;28;20261;-87
2022/09/18 19:41:55;;;;;;;33.47;19.40;;;9.20;1.00;;;;;;5021221;28;20204;-88
2022/09/18 19:44:31;;;;;;;34.73;19.63;;;9.20;91.30;;;;;;5027742;28;20198;-86
2022/09/18 19:47:02;;;;;;;35.60;20.07;;;9.10;36.50;;;;;;5022239;28;20194;-88
2022/09/18 19:49:32;;;;;;;34.77;19.80;;;9.10;26.60;;;;;;5030653;28;20198;-87
2022/09/18 19:52:00;;;;;;;34.93;19.80;;;9.10;7.50;;;;;;5022094;28;20637;-89
2022/09/18 19:54:28;;;;;;;34.90;19.70;;;9.10;7.60;;;;;;5027529;28;20232;-87
2022/09/18 19:56:56;;;;;;;35.93;20.03;;;9.20;1.00;;;;;;5027656;28;20644;-88
2022/09/18 19:59:26;;;;;;;35.57;19.90;;;9.10;1.00;;;;;;5031939;28;20200;-88
2022/09/18 20:01:54;;;;;;;36.20;20.10;;;9.20;1.00;;;;;;5030738;28;20197;-88
2022/09/18 20:04:21;;;;;;;37.50;20.40;;;9.10;1.00;;;;;;5018451;28;20213;-87
2022/09/18 20:06:48;;;;;;;37.67;20.53;;;9.10;1.00;;;;;;5035563;28;20272;-88
2022/09/18 20:09:15;;;;;;;38.67;20.73;;;9.10;1.00;;;;;;5028515;28;20192;-86
2022/09/18 20:11:42;;;;;;;39.17;20.90;;;9.00;1.00;;;;;;5028993;28;20189;-87
2022/09/18 20:14:10;;;;;;;38.50;20.63;;;9.00;1.00;;;;;;5036473;28;20332;-86
2022/09/18 20:16:38;;;;;;;41.17;21.30;;;8.90;1.00;;;;;;5036638;28;20240;-86
2022/09/18 20:19:05;;;;;;;40.93;21.40;;;9.00;2.30;;;;;;5035493;28;20197;-86
2022/09/18 20:21:32;;;;;;;41.67;21.63;;;8.90;3.70;;;;;;5022088;28;20292;-86
2022/09/18 20:24:01;;;;;;;41.77;21.60;;;8.90;3.20;;;;;;5031896;28;20252;-86
2022/09/18 20:26:28;;;;;;;40.47;21.13;;;8.90;82.70;;;;;;5041895;28;20196;-87
2022/09/18 20:28:55;;;;;;;42.77;21.80;;;9.00;99.90;;;;;;5055615;28;20235;-87
2022/09/18 20:31:23;;;;;;;44.40;22.27;;;8.90;1.00;;;;;;5054973;28;20189;-87
2022/09/18 20:33:55;;;;;;;46.07;22.80;;;8.80;1.00;;;;;;5054898;28;20246;-87
2022/09/18 20:36:24;;;;;;;43.17;21.87;;;8.80;1.00;;;;;;5047618;28;20184;-86
2022/09/18 20:38:56;;;;;;;43.17;21.90;;;8.80;1.00;;;;;;5050481;28;20262;-86
2022/09/18 20:41:27;;;;;;;42.50;21.77;;;8.70;90.40;;;;;;5039942;28;20196;-85
2022/09/18 20:43:54;;;;;;;41.30;21.50;;;8.70;58.80;;;;;;5015562;28;20198;-86
2022/09/18 20:46:22;;;;;;;50.40;23.30;;;8.60;1.00;;;;;;5020458;28;20200;-86
2022/09/18 20:48:51;;;;;;;;;;;8.50;1.00;;;;;;5022753;28;20266;-86
2022/09/18 20:51:21;;;;;;;42.27;21.67;;;8.50;1.00;;;;;;5030983;28;20219;-85
2022/09/18 20:53:49;;;;;;;41.53;21.30;;;8.40;1.00;;;;;;5031551;28;20200;-86
2022/09/18 20:56:20;;;;;;;43.37;21.80;;;8.40;1.00;;;;;;5029260;28;20230;-86
2022/09/18 20:58:50;;;;;;;50.20;23.37;;;8.40;1.00;;;;;;5021345;28;20189;-86
2022/09/18 21:01:20;;;;;;;53.50;24.30;;;8.40;1.00;;;;;;5024602;28;20716;-86
2022/09/18 21:03:55;;;;;;;49.47;23.47;;;8.40;1.00;;;;;;5016261;28;20229;-85
2022/09/18 21:06:25;;;;;;;52.40;24.00;;;8.40;7.90;;;;;;5022572;28;20280;-85
2022/09/18 21:08:54;;;;;;;;;;;8.40;1.00;;;;;;5013617;28;20198;-86
2022/09/18 21:11:24;;;;;;;41.37;21.43;;;8.40;1.00;;;;;;5030049;28;20373;-87
2022/09/18 21:13:53;;;;;;;42.33;21.63;;;8.40;1.00;;;;;;5016275;28;20600;-88
2022/09/18 21:16:21;;;;;;;43.30;21.80;;;8.40;11.00;;;;;;5018284;28;20210;-86
2022/09/18 21:18:52;;;;;;;41.47;21.43;;;8.30;1.00;;;;;;5014958;28;20586;-86
2022/09/18 21:21:20;;;;;;;38.50;20.73;;;8.30;1.00;;;;;;5019992;28;20252;-86
2022/09/18 21:23:55;;;;;;;42.93;21.70;;;8.20;1.00;;;;;;5031453;28;20704;-87
2022/09/18 21:26:23;;;;;;;40.03;20.80;;;8.20;1.00;;;;;;5035177;28;20200;-86
2022/09/18 21:28:50;;;;;;;39.70;20.80;;;8.10;1.00;;;;;;5035015;28;20642;-87
2022/09/18 21:31:18;;;;;;;38.87;20.50;;;8.00;1.00;;;;;;5035170;28;20193;-87
2022/09/18 21:33:45;;;;;;;37.63;20.43;;;8.00;1.00;;;;;;5035181;28;20185;-87
2022/09/18 21:36:12;;;;;;;38.10;20.37;;;7.90;1.00;;;;;;5034873;28;20217;-87
2022/09/18 21:38:40;;;;;;;38.83;20.53;;;7.90;1.00;;;;;;5034721;28;20542;-86
2022/09/18 21:41:10;;;;;;;40.43;20.93;;;7.80;1.00;;;;;;5034747;28;20673;-87
2022/09/18 21:43:38;;;;;;;38.70;20.43;;;7.80;1.00;;;;;;5035314;28;20653;-87
2022/09/18 21:46:07;;;;;;;38.93;20.60;;;7.70;28.10;;;;;;5031444;28;20293;-87
2022/09/18 21:48:34;;;;;;;37.93;20.40;;;7.70;1.00;;;;;;5023702;28;20251;-86
2022/09/18 21:51:02;;;;;;;40.57;21.00;;;7.60;1.00;;;;;;5029529;28;20251;-87
2022/09/18 21:53:30;;;;;;;35.90;19.63;;;7.60;1.00;;;;;;5034829;28;20185;-86
2022/09/18 21:56:00;;;;;;;37.20;20.10;;;7.50;1.00;;;;;;5033425;28;20225;-88
2022/09/18 21:58:29;;;;;;;35.03;19.23;;;7.50;2.60;;;;;;5030061;28;20221;-87
2022/09/18 22:00:57;;;;;;;35.73;19.43;;;7.50;99.90;;;;;;5034801;28;20201;-87
2022/09/18 22:03:24;;;;;;;37.07;19.73;;;7.40;1.00;;;;;;5034386;28;20229;-86
2022/09/18 22:05:52;;;;;;;40.53;20.87;;;7.30;8.70;;;;;;5034353;28;20716;-87
2022/09/18 22:08:19;;;;;;;38.17;20.13;;;7.30;5.00;;;;;;5034299;28;20276;-87
2022/09/18 22:10:46;;;;;;;41.13;21.03;;;7.30;33.30;;;;;;5034582;28;20205;-87
2022/09/18 22:13:13;;;;;;;41.10;21.10;;;7.30;3.50;;;;;;5022939;28;20646;-87
2022/09/18 22:15:41;;;;;;;42.07;21.33;;;7.20;25.00;;;;;;5032037;28;20271;-86
2022/09/18 22:18:08;;;;;;;42.30;21.37;;;7.30;99.90;;;;;;5034132;28;20594;-87
2022/09/18 22:20:36;;;;;;;38.57;20.37;;;7.30;99.90;;;;;;5031497;28;20240;-87
2022/09/18 22:23:04;;;;;;;44.50;21.70;;;7.20;99.90;;;;;;5034086;28;20221;-87
2022/09/18 22:25:31;;;;;;;45.10;22.00;;;7.30;99.90;;;;;;5033554;28;20194;-86
2022/09/18 22:27:58;;;;;;;45.27;21.93;;;7.30;99.90;;;;;;5034472;28;20638;-86
2022/09/18 22:30:25;;;;;;;46.07;22.10;;;7.10;99.90;;;;;;5034346;28;20312;-86
2022/09/18 22:32:54;;;;;;;45.00;21.97;;;7.00;81.00;;;;;;5034121;28;20196;-87
2022/09/18 22:35:21;;;;;;;41.30;20.93;;;7.00;99.90;;;;;;5033665;28;20213;-86
2022/09/18 22:37:48;;;;;;;42.17;21.03;;;6.90;95.50;;;;;;5034234;28;20201;-87
2022/09/18 22:40:15;;;;;;;43.97;21.57;;;6.90;99.90;;;;;;5034393;28;20243;-87
2022/09/18 22:42:42;;;;;;;41.77;20.97;;;6.90;99.90;;;;;;5032623;28;20250;-87
2022/09/18 22:45:10;;;;;;;43.17;21.47;;;6.80;99.90;;;;;;5033566;28;20201;-86
2022/09/18 22:47:37;;;;;;;41.63;20.83;;;6.80;99.90;;;;;;5033979;28;20201;-86
2022/09/18 22:50:06;;;;;;;45.87;22.23;;;6.80;99.90;;;;;;5033994;28;20247;-86
2022/09/18 22:52:35;;;;;;;46.53;22.23;;;6.70;99.90;;;;;;5034077;28;20537;-86
2022/09/18 22:55:02;;;;;;;45.33;21.90;;;6.70;99.90;;;;;;5033574;28;20223;-85
2022/09/18 22:57:30;;;;;;;45.23;21.97;;;6.70;84.70;;;;;;5033685;28;20205;-86
2022/09/18 22:59:57;;;;;;;45.27;21.70;;;6.70;71.90;;;;;;5033778;28;20197;-86
2022/09/18 23:02:24;;;;;;;45.13;21.97;;;6.60;90.50;;;;;;5033341;28;20228;-86
2022/09/18 23:04:51;;;;;;;44.10;21.63;;;6.60;99.90;;;;;;5033593;28;20244;-86
2022/09/18 23:07:20;;;;;;;44.30;21.77;;;6.50;99.90;;;;;;5033396;28;20285;-84
2022/09/18 23:09:47;;;;;;;43.60;21.50;;;6.50;99.90;;;;;;5033436;28;20251;-87
2022/09/18 23:12:14;;;;;;;49.37;23.13;;;6.50;99.90;;;;;;5029901;28;20602;-86
2022/09/18 23:14:41;;;;;;;47.93;22.67;;;6.50;99.90;;;;;;5023546;28;20185;-86
2022/09/18 23:17:09;;;;;;;46.87;22.37;;;6.40;99.90;;;;;;5033335;28;20197;-86
2022/09/18 23:19:36;;;;;;;44.50;21.77;;;6.40;99.90;;;;;;5033174;28;20673;-85
2022/09/18 23:22:04;;;;;;;44.93;22.03;;;6.40;99.90;;;;;;5033168;28;20201;-86
2022/09/18 23:24:32;;;;;;;47.47;22.53;;;6.40;99.90;;;;;;5032904;28;20726;-86
2022/09/18 23:26:59;;;;;;;44.73;21.70;;;6.40;99.90;;;;;;5032881;28;20247;-86
2022/09/18 23:29:28;;;;;;;47.10;22.50;;;6.30;99.90;;;;;;5032743;28;20232;-85
2022/09/18 23:31:56;;;;;;;48.33;22.40;;;6.30;99.90;;;;;;5032961;28;20595;-85
2022/09/18 23:34:24;;;;;;;46.47;22.17;;;6.30;99.90;;;;;;5032659;28;20193;-85
2022/09/18 23:36:53;;;;;;;46.07;21.93;;;6.40;99.90;;;;;;5033035;28;20625;-85
2022/09/18 23:39:23;;;;;;;51.80;23.30;;;6.30;99.90;;;;;;5032616;28;20653;-85
2022/09/18 23:41:52;;;;;;;46.23;22.27;;;6.30;99.90;;;;;;5033064;28;20204;-85
2022/09/18 23:44:21;;;;;;;45.50;21.83;;;6.30;99.90;;;;;;5032753;28;20247;-86
2022/09/18 23:46:49;;;;;;;49.67;22.83;;;6.40;99.90;;;;;;5031753;28;20679;-85
2022/09/18 23:49:19;;;;;;;51.23;23.10;;;6.30;99.90;;;;;;5032957;28;20193;-85
2022/09/18 23:51:46;;;;;;;49.83;22.83;;;6.30;99.90;;;;;;5033044;28;20193;-86
2022/09/18 23:54:16;;;;;;;50.47;23.10;;;6.30;99.90;;;;;;5032993;28;20200;-86
2022/09/18 23:56:44;;;;;;;49.80;22.77;;;6.30;99.90;;;;;;5032346;28;20697;-86
2022/09/18 23:59:13;;;;;;;51.77;23.40;;;6.30;99.90;;;;;;5032426;28;20251;-86
